• Join FlightAware (Why Join?)
  • Login
  • US Flag 
10:13PM EDT


 

Airport Tracker/Info


-or-


 

Live Flight TrackerFlight Track Log ✈ KLM1366 ✈ 12-May-2012 ✈ EPWA / WAW - EHAM / AMS

Flight Track Log - Related Links

Times and Time Zones

All times are in EDT time to prevent confusion due to time zone crossing. See the KLM1366 flight status page for this flight to view local times or setup timezone preferences in your user account.

Time Position Orientation Groundspeed Altitude Reporting Facility
EDT Latitude Longitude Course Direction KTS MPH feet Rate Location/Type
11:19AM 52.2701 19.5090 276° West  Level Estimated
11:20AM 52.2783 19.3823 276° West  Level Estimated
11:21AM 52.2864 19.2555 276° West  Level Estimated
11:22AM 52.2943 19.1287 276° West  Level Estimated
11:23AM 52.3021 19.0018 276° West  Level Estimated
11:24AM 52.3098 18.8749 276° West  Level Estimated
11:25AM 52.3173 18.7479 275° West  Level Estimated
11:26AM 52.3247 18.6209 275° West  Level Estimated
11:27AM 52.3319 18.4939 275° West  Level Estimated
11:28AM 52.3390 18.3668 275° West  Level Estimated
11:29AM 52.3460 18.2397 275° West  Level Estimated
11:30AM 52.3529 18.1125 275° West  Level Estimated
11:31AM 52.3596 17.9853 275° West  Level Estimated
11:32AM 52.3661 17.8580 275° West  Level Estimated
11:33AM 52.3726 17.7307 275° West  Level Estimated
11:34AM 52.3788 17.6034 275° West  Level Estimated
11:35AM 52.3850 17.4761 274° West  Level Estimated
11:36AM 52.3910 17.3487 274° West  Level Estimated
11:37AM 52.3969 17.2213 274° West  Level Estimated
11:38AM 52.4027 17.0938 274° West  Level Estimated
11:39AM 52.4083 16.9663 274° West  Level Estimated
11:40AM 52.4137 16.8388 274° West  Level Estimated
11:41AM 52.4199 16.6915 274° West  Level Estimated
11:42AM 52.4259 16.5442 274° West  Level Estimated
11:43AM 52.4316 16.3969 274° West  Level Estimated
11:44AM 52.4372 16.2495 274° West  Level Estimated
11:45AM 52.4427 16.1021 273° West  Level Estimated
11:46AM 52.4479 15.9546 273° West  Level Estimated
11:47AM 52.4529 15.8071 273° West  Level Estimated
11:48AM 52.4578 15.6596 273° West  Level Estimated
11:49AM 52.4625 15.5120 273° West  Level Estimated
11:50AM 52.4670 15.3644 273° West  Level Estimated
11:51AM 52.4713 15.2168 273° West  Level Estimated
11:52AM 52.4754 15.0691 273° West  Level Estimated
11:53AM 52.4794 14.9215 272° West  Level Estimated
11:54AM 52.4832 14.7738 272° West  Level Estimated
11:55AM 52.4867 14.6260 272° West  Level Estimated
11:56AM 52.4901 14.4783 272° West  Level Estimated
11:57AM 52.4933 14.3305 272° West  Level Estimated
11:58AM 52.4963 14.1827 272° West  Level Estimated
11:59AM 52.4992 14.0349 272° West  Level Estimated
12:00PM 52.5019 13.8871 272° West  Level Estimated
12:01PM 52.5043 13.7392 272° West  Level Estimated
12:02PM 52.5066 13.5914 271° West  Level Estimated
12:03PM 52.5087 13.4435 271° West  Level Estimated
12:04PM 52.5106 13.2956 271° West  Level Estimated
12:05PM 52.5124 13.1477 271° West  Level Estimated
12:06PM 52.5139 12.9998 271° West  Level Estimated
12:07PM 52.5153 12.8519 271° West  Level Estimated
12:08PM 52.5165 12.7039 271° West  Level Estimated
12:09PM 52.5175 12.5560 271° West  Level Estimated
12:10PM 52.5183 12.4080 270° West  Level Estimated
12:11PM 52.5189 12.2601 270° West  Level Estimated
12:12PM 52.5194 12.1121 270° West  Level Estimated
12:13PM 52.5196 11.9642 270° West  Level Estimated
12:14PM 52.5197 11.8162 270° West  Level Estimated
12:15PM 52.5196 11.6683 270° West  Level Estimated
12:16PM 52.5193 11.5203 270° West  Level Estimated
12:17PM 52.5188 11.3723 270° West  Level Estimated
12:18PM 52.5182 11.2244 270° West  Level Estimated
12:19PM 52.5173 11.0764 269° West  Level Estimated
12:20PM 52.5163 10.9285 269° West  Level Estimated
12:21PM 52.5151 10.7806 269° West  Level Estimated
12:22PM 52.5137 10.6326 269° West  Level Estimated
12:23PM 52.5121 10.4847 269° West  Level Estimated
12:24PM 52.5103 10.3368 269° West  Level Estimated
12:25PM 52.5084 10.1889 269° West  Level Estimated
12:26PM 52.5062 10.0411 269° West  Level Estimated
12:27PM 52.5039 9.8932 268° West  Level Estimated
12:28PM 52.5014 9.7453 268° West  Level Estimated
12:29PM 52.4987 9.5975 268° West  Level Estimated
12:30PM 52.4958 9.4497 268° West  Level Estimated
12:31PM 52.4928 9.3019 268° West  Level Estimated
12:32PM 52.4895 9.1542 268° West  Level Estimated
12:33PM 52.4861 9.0064 268° West  Level Estimated
12:34PM 52.4825 8.8587 268° West  Level Estimated
12:35PM 52.4787 8.7110 268° West  Level Estimated
12:36PM 52.4747 8.5633 267° West  Level Estimated
12:37PM 52.4706 8.4157 267° West  Level Estimated
12:38PM 52.4662 8.2681 267° West  Level Estimated
12:39PM 52.4617 8.1205 267° West  Level Estimated
12:40PM 52.4570 7.9729 267° West  Level Estimated
12:41PM 52.4521 7.8254 267° West  Level Estimated
12:42PM 52.4470 7.6779 267° West  Level Estimated
12:43PM 52.4413 7.5189 267° West  Level Estimated
12:44PM 52.4354 7.3599 266° West  Level Estimated
12:45PM 52.4293 7.2010 266° West  Level Estimated
12:46PM 52.4230 7.0421 266° West  Level Estimated
12:47PM 52.4164 6.8833 266° West  Level Estimated
12:48PM 52.4097 6.7245 266° West  Level Estimated
12:49PM 52.4027 6.5657 266° West  Level Estimated
12:50PM 52.3956 6.4070 266° West  Level Estimated
12:51PM 52.3882 6.2484 266° West  Level Estimated
12:52PM 52.3806 6.0898 265° West  Level Estimated
12:53PM 52.3728 5.9313 265° West  Level Estimated
12:54PM 52.3647 5.7728 265° West  Level Estimated
12:55PM 52.3565 5.6144 265° West  Level Estimated
12:56PM 52.3480 5.4560 265° West  Level Estimated